Time;durP1;ratioP1;P1;durP2;ratioP2;P2;SDS_P1;SDS_P2;PMS_P1;PMS_P2;Temp;Humidity;BMP_temperature;BMP_pressure;BME280_temperature;BME280_humidity;BME280_pressure;Samples;Min_cycle;Max_cycle;Signal;HPM_P1;HPM_P2
2023/05/24 00:02:12;;;;;;;8.77;7.97;;;;;;;14.51;100.00;96471.47;5072798;27;102437;-61
2023/05/24 00:04:59;;;;;;;7.73;7.13;;;;;;;14.47;100.00;96465.06;5052188;27;101926;-60
2023/05/24 00:07:26;;;;;;;8.80;8.10;;;;;;;14.38;100.00;96476.63;5052425;27;102375;-61
2023/05/24 00:09:53;;;;;;;8.00;7.30;;;;;;;14.29;100.00;96472.88;5061245;27;103303;-61
2023/05/24 00:12:20;;;;;;;7.57;6.90;;;;;;;14.30;100.00;96458.44;5064712;27;101830;-60
2023/05/24 00:14:47;;;;;;;10.03;7.10;;;;;;;14.38;100.00;96458.66;5065157;27;102853;-60
2023/05/24 00:17:16;;;;;;;7.30;6.40;;;;;;;14.27;100.00;96453.59;5050388;27;105707;-61
2023/05/24 00:19:43;;;;;;;7.10;6.37;;;;;;;14.22;100.00;96456.31;5052226;27;102327;-61
2023/05/24 00:22:10;;;;;;;6.80;6.20;;;;;;;14.20;100.00;96455.78;5053015;27;102565;-60
2023/05/24 00:24:44;;;;;;;7.33;6.63;;;;;;;14.29;100.00;96448.81;5070411;27;103763;-61
2023/05/24 00:27:10;;;;;;;7.20;6.50;;;;;;;14.20;100.00;96458.44;5072393;27;102253;-60
2023/05/24 00:29:37;;;;;;;6.77;6.27;;;;;;;14.09;100.00;96454.16;5064376;27;105138;-61
2023/05/24 00:32:05;;;;;;;7.37;6.67;;;;;;;14.02;100.00;96457.09;5050820;27;105453;-61
2023/05/24 00:35:10;;;;;;;7.00;6.40;;;;;;;13.93;100.00;96456.06;5074536;27;101996;-61
2023/05/24 00:37:40;;;;;;;7.60;6.87;;;;;;;13.89;100.00;96446.97;5069811;27;104526;-60
2023/05/24 00:40:10;;;;;;;7.37;6.77;;;;;;;13.90;100.00;96448.56;5070802;27;102218;-61
2023/05/24 00:42:36;;;;;;;7.50;6.90;;;;;;;13.86;100.00;96446.72;5070758;27;103706;-61
2023/05/24 00:45:05;;;;;;;6.97;6.30;;;;;;;13.86;100.00;96449.38;5070284;27;105355;-61
2023/05/24 00:47:33;;;;;;;6.80;6.30;;;;;;;13.83;100.00;96452.59;5069085;27;102165;-60
2023/05/24 00:50:00;;;;;;;7.67;6.97;;;;;;;13.74;100.00;96444.31;5068715;27;105341;-61
2023/05/24 00:52:28;;;;;;;7.37;6.67;;;;;;;13.78;100.00;96449.91;5050117;27;105366;-61
2023/05/24 00:54:58;;;;;;;7.40;6.80;;;;;;;13.72;100.00;96448.31;5053688;27;102167;-61
2023/05/24 00:57:26;;;;;;;8.03;6.83;;;;;;;13.67;100.00;96440.31;5066453;27;105560;-60
2023/05/24 00:59:53;;;;;;;7.73;7.10;;;;;;;13.63;100.00;96441.94;5050175;27;102458;-60
2023/05/24 01:02:21;;;;;;;7.50;6.80;;;;;;;13.62;100.00;96441.13;5055986;27;105522;-61
2023/05/24 01:04:56;;;;;;;8.07;7.10;;;;;;;13.56;100.00;96441.38;5049152;27;105769;-60
2023/05/24 01:07:36;;;;;;;7.97;7.27;;;;;;;13.54;100.00;96438.19;5053098;27;101904;-61
2023/05/24 01:10:12;;;;;;;8.07;7.10;;;;;;;13.49;100.00;96436.31;5067873;27;105107;-60
2023/05/24 01:12:51;;;;;;;7.77;7.07;;;;;;;13.49;100.00;96438.19;5069842;27;105105;-61
2023/05/24 01:15:28;;;;;;;6.90;6.27;;;;;;;13.43;100.00;96434.72;5062517;27;102027;-61
2023/05/24 01:18:06;;;;;;;8.17;7.47;;;;;;;13.43;100.00;96431.22;5052774;27;105139;-61
2023/05/24 01:20:36;;;;;;;8.07;7.37;;;;;;;13.40;100.00;96431.78;5051554;27;101714;-60
2023/05/24 01:26:26;;;;;;;7.73;7.03;;;;;;;13.33;100.00;96432.03;5030780;27;101795;-61
2023/05/24 01:28:55;;;;;;;7.80;7.10;;;;;;;13.33;100.00;96436.56;5026493;27;103212;-61
2023/05/24 01:31:22;;;;;;;8.70;7.90;;;;;;;13.30;100.00;96437.09;5025628;28;101926;-61
2023/05/24 01:34:01;;;;;;;8.20;7.50;;;;;;;13.26;100.00;96438.69;5026346;28;102713;-61
2023/05/24 01:36:28;;;;;;;7.93;7.23;;;;;;;13.28;100.00;96440.03;5026471;27;102612;-61
2023/05/24 01:38:56;;;;;;;8.27;7.50;;;;;;;13.29;100.00;96435.47;5022032;28;101997;-61
2023/05/24 01:41:33;;;;;;;8.77;7.87;;;;;;;13.35;100.00;96434.44;5006875;28;102821;-61
2023/05/24 01:44:34;;;;;;;9.80;8.23;;;;;;;13.33;100.00;96431.22;5018163;28;105341;-61
2023/05/24 01:47:07;;;;;;;8.23;7.53;;;;;;;13.34;100.00;96432.81;5028572;28;101912;-61
2023/05/24 01:49:39;;;;;;;8.10;7.40;;;;;;;13.34;100.00;96430.16;5024689;28;105164;-61
2023/05/24 01:52:12;;;;;;;8.23;7.57;;;;;;;13.39;100.00;96441.66;5025086;28;101948;-61
2023/05/24 01:54:45;;;;;;;8.53;7.83;;;;;;;13.43;100.00;96431.22;5024460;28;105527;-61
2023/05/24 01:57:13;;;;;;;8.50;7.70;;;;;;;13.45;100.00;96439.78;5024784;28;105570;-61
2023/05/24 01:59:43;;;;;;;8.60;7.80;;;;;;;13.42;100.00;96441.09;5024994;28;101967;-61
2023/05/24 02:02:10;;;;;;;8.57;7.87;;;;;;;13.40;100.00;96437.13;5025154;28;104803;-61
2023/05/24 02:05:00;;;;;;;7.87;7.27;;;;;;;13.39;100.00;96433.63;5023971;28;104113;-61
2023/05/24 02:07:26;;;;;;;8.60;7.87;;;;;;;13.44;100.00;96441.66;5021621;28;102101;-61
2023/05/24 02:09:53;;;;;;;8.03;7.37;;;;;;;13.46;100.00;96444.84;5018922;28;105459;-61
2023/05/24 02:12:20;;;;;;;8.73;8.03;;;;;;;13.41;100.00;96449.41;5024357;28;102026;-61
2023/05/24 02:15:10;;;;;;;7.90;7.23;;;;;;;13.43;100.00;96436.56;5021681;28;104074;-61
2023/05/24 02:17:37;;;;;;;8.77;8.00;;;;;;;13.41;100.00;96444.06;5021272;28;105801;-61
2023/05/24 02:20:05;;;;;;;8.33;7.63;;;;;;;13.41;100.00;96444.06;5024925;28;102039;-61
2023/05/24 02:22:32;;;;;;;9.97;9.07;;;;;;;13.37;100.00;96448.31;5026238;27;102363;-61
2023/05/24 02:24:59;;;;;;;9.27;8.47;;;;;;;13.27;100.00;96442.97;5023064;28;105861;-61
2023/05/24 02:27:26;;;;;;;9.10;8.33;;;;;;;13.30;100.00;96443.22;5025932;27;101891;-61
2023/05/24 02:29:53;;;;;;;9.30;8.57;;;;;;;13.32;100.00;96441.13;5026319;27;102359;-61
2023/05/24 02:32:22;;;;;;;9.30;8.43;;;;;;;13.31;100.00;96439.50;5027102;28;106008;-61
2023/05/24 02:35:27;;;;;;;9.07;8.27;;;;;;;13.32;100.00;96435.78;5026039;27;102819;-61
2023/05/24 02:37:57;;;;;;;9.30;8.50;;;;;;;13.38;100.00;96429.38;5011607;28;102935;-61
2023/05/24 02:40:24;;;;;;;8.77;7.97;;;;;;;13.45;100.00;96435.25;5012490;28;101924;-61
2023/05/24 02:42:51;;;;;;;10.60;9.03;;;;;;;13.47;100.00;96432.31;5010633;28;106656;-61
2023/05/24 02:45:23;;;;;;;10.20;9.37;;;;;;;13.42;100.00;96429.63;5006857;28;105546;-61
2023/05/24 02:47:51;;;;;;;9.53;8.63;;;;;;;13.45;100.00;96426.41;5006248;28;101988;-61
2023/05/24 02:50:18;;;;;;;9.47;8.57;;;;;;;13.50;100.00;96435.25;4995145;28;103751;-61
2023/05/24 02:52:45;;;;;;;9.67;8.77;;;;;;;13.46;100.00;96441.41;4990448;28;105839;-61
2023/05/24 02:55:31;;;;;;;10.73;9.33;;;;;;;13.37;100.00;96437.63;4997596;28;102211;-61
2023/05/24 02:57:58;;;;;;;10.27;9.27;;;;;;;13.41;100.00;96430.69;5010144;28;105553;-61
2023/05/24 03:00:25;;;;;;;10.37;9.23;;;;;;;13.39;100.00;96430.97;5010682;28;102081;-61
2023/05/24 03:02:59;;;;;;;10.83;9.83;;;;;;;13.38;100.00;96434.72;5010698;28;103843;-61
2023/05/24 03:05:31;;;;;;;11.00;9.83;;;;;;;13.29;100.00;96433.63;5006514;28;105508;-61
2023/05/24 03:07:58;;;;;;;10.67;9.67;;;;;;;13.27;100.00;96437.63;5010072;28;102808;-61
2023/05/24 03:10:25;;;;;;;10.30;9.33;;;;;;;13.25;100.00;96437.09;5012129;28;102469;-61
2023/05/24 03:12:52;;;;;;;10.50;9.60;;;;;;;13.25;100.00;96445.13;5009818;28;105641;-61
2023/05/24 03:15:24;;;;;;;11.00;10.10;;;;;;;13.20;100.00;96431.75;5010662;28;101940;-61
2023/05/24 03:17:52;;;;;;;11.27;10.27;;;;;;;13.19;100.00;96440.84;5011959;28;105002;-61
2023/05/24 03:20:22;;;;;;;10.73;9.70;;;;;;;13.19;100.00;96438.16;5009421;28;102142;-61
2023/05/24 03:22:49;;;;;;;11.03;10.00;;;;;;;13.15;100.00;96442.44;5010391;28;105087;-61
2023/05/24 03:25:16;;;;;;;11.07;9.97;;;;;;;13.11;100.00;96439.47;5007716;28;105454;-61
2023/05/24 03:27:43;;;;;;;11.07;10.17;;;;;;;13.09;100.00;96441.59;5006053;28;102118;-61
2023/05/24 03:30:11;;;;;;;10.63;9.73;;;;;;;13.05;100.00;96440.53;4989436;28;105215;-61
2023/05/24 03:32:49;;;;;;;10.90;9.90;;;;;;;13.11;100.00;96438.66;4998956;28;105577;-61
2023/05/24 03:35:16;;;;;;;11.13;10.13;;;;;;;13.09;100.00;96446.94;4990413;28;101870;-61
2023/05/24 03:37:45;;;;;;;10.83;9.90;;;;;;;13.03;100.00;96441.88;5005573;28;104166;-61
2023/05/24 03:40:12;;;;;;;12.37;11.10;;;;;;;13.04;100.00;96448.81;4993916;28;101945;-61
2023/05/24 03:42:53;;;;;;;11.73;10.67;;;;;;;13.01;100.00;96444.81;5006161;28;105300;-61
2023/05/24 03:45:29;;;;;;;11.57;10.50;;;;;;;13.04;100.00;96443.47;5008322;28;105020;-61
2023/05/24 03:47:57;;;;;;;11.17;10.27;;;;;;;13.05;100.00;96445.88;5008542;28;101958;-61
2023/05/24 03:50:24;;;;;;;11.20;10.10;;;;;;;13.05;100.00;96447.75;5009245;28;105281;-61
2023/05/24 03:52:53;;;;;;;11.27;10.27;;;;;;;13.09;100.00;96446.94;5009861;28;102708;-61
2023/05/24 03:55:21;;;;;;;12.00;10.90;;;;;;;13.10;100.00;96451.25;5005502;28;102050;-61
2023/05/24 03:57:48;;;;;;;11.47;10.47;;;;;;;13.00;100.00;96447.72;5004562;28;105076;-61
2023/05/24 04:00:16;;;;;;;11.83;10.83;;;;;;;13.05;100.00;96453.91;4991771;28;104158;-61
2023/05/24 04:02:47;;;;;;;11.57;10.47;;;;;;;13.02;100.00;96453.63;5004908;28;104803;-61
2023/05/24 04:05:20;;;;;;;11.10;10.00;;;;;;;13.02;100.00;96461.63;4999917;28;105612;-61
2023/05/24 04:07:48;;;;;;;11.67;10.60;;;;;;;13.05;100.00;96458.41;4988875;28;102000;-61
2023/05/24 04:10:16;;;;;;;12.50;10.37;;;;;;;13.13;100.00;96458.69;5000480;28;105270;-61
2023/05/24 04:12:45;;;;;;;10.40;9.33;;;;;;;13.17;100.00;96458.97;5004955;28;105834;-61
2023/05/24 04:15:14;;;;;;;10.73;9.73;;;;;;;13.13;100.00;96457.91;5006015;28;102948;-61
2023/05/24 04:17:41;;;;;;;11.60;10.50;;;;;;;13.19;100.00;96462.97;5009831;28;105290;-61
2023/05/24 04:20:09;;;;;;;11.37;10.37;;;;;;;13.23;100.00;96466.72;5007876;28;104195;-61
2023/05/24 04:22:35;;;;;;;10.93;10.03;;;;;;;13.15;100.00;96464.59;4991987;28;102208;-61
2023/05/24 04:25:03;;;;;;;11.87;10.87;;;;;;;13.11;100.00;96465.38;4993558;28;105168;-61
2023/05/24 04:27:35;;;;;;;10.73;9.83;;;;;;;13.18;100.00;96471.25;5008349;28;101894;-60
2023/05/24 04:30:02;;;;;;;11.50;10.50;;;;;;;13.19;100.00;96465.66;5008665;28;105527;-60
2023/05/24 04:32:29;;;;;;;11.00;10.00;;;;;;;13.18;100.00;96471.25;5007694;28;105774;-61
2023/05/24 04:35:19;;;;;;;11.93;10.40;;;;;;;13.15;100.00;96467.28;5007991;28;101985;-61
2023/05/24 04:37:47;;;;;;;10.60;9.70;;;;;;;13.20;100.00;96471.81;5008592;28;105410;-61
2023/05/24 04:40:19;;;;;;;11.00;10.07;;;;;;;13.11;100.00;96470.72;5008465;28;103878;-61
2023/05/24 04:42:48;;;;;;;11.17;10.17;;;;;;;13.07;100.00;96473.09;5009685;28;101741;-61
2023/05/24 04:45:32;;;;;;;10.80;9.80;;;;;;;13.06;100.00;96468.03;5012364;28;102815;-61
2023/05/24 04:47:59;;;;;;;13.37;12.07;;;;;;;13.06;100.00;96470.69;4996524;28;102129;-60
2023/05/24 04:50:29;;;;;;;14.47;12.97;;;;;;;13.00;100.00;96471.75;5008113;28;105103;-62
2023/05/24 04:52:56;;;;;;;12.93;11.63;;;;;;;13.05;100.00;96475.25;5007530;28;105460;-62
2023/05/24 04:55:25;;;;;;;11.57;10.47;;;;;;;13.00;100.00;96479.75;5009424;28;101879;-61
2023/05/24 04:57:53;;;;;;;12.03;10.93;;;;;;;13.02;100.00;96474.97;5008056;28;104970;-62
2023/05/24 05:00:21;;;;;;;12.13;11.13;;;;;;;13.03;100.00;96479.25;5006914;28;105681;-62
2023/05/24 05:02:48;;;;;;;12.33;11.03;;;;;;;13.01;100.00;96476.03;5007864;28;102088;-61
2023/05/24 05:05:41;;;;;;;11.13;10.13;;;;;;;13.00;100.00;96479.75;5007806;28;104922;-62
2023/05/24 05:08:08;;;;;;;11.20;10.10;;;;;;;12.99;100.00;96476.31;5010937;28;105272;-62
2023/05/24 05:10:35;;;;;;;11.17;10.07;;;;;;;13.07;100.00;96475.78;5007660;28;105042;-62
2023/05/24 05:13:04;;;;;;;11.37;10.13;;;;;;;13.11;100.00;96476.06;5007310;28;105307;-62
2023/05/24 05:15:31;;;;;;;11.97;10.87;;;;;;;13.03;100.00;96479.25;5007810;28;101872;-61
2023/05/24 05:17:58;;;;;;;12.07;10.97;;;;;;;13.09;100.00;96470.97;5007846;28;105233;-61
2023/05/24 05:20:25;;;;;;;11.60;10.60;;;;;;;13.11;100.00;96481.38;5007059;28;105055;-61
2023/05/24 05:22:52;;;;;;;11.80;10.77;;;;;;;13.12;100.00;96478.47;5009093;28;102055;-61
2023/05/24 05:25:23;;;;;;;11.47;10.40;;;;;;;13.13;100.00;96472.06;5006973;28;104854;-61
2023/05/24 05:27:50;;;;;;;11.07;10.07;;;;;;;13.13;100.00;96468.59;5008945;28;102822;-61
2023/05/24 05:30:19;;;;;;;11.67;10.40;;;;;;;13.15;100.00;96461.13;5012199;28;102924;-61
2023/05/24 05:32:46;;;;;;;11.50;10.50;;;;;;;13.16;100.00;96462.72;5006794;28;105486;-61
2023/05/24 05:35:20;;;;;;;11.77;10.73;;;;;;;13.17;100.00;96465.13;5008874;28;101880;-61
2023/05/24 05:37:47;;;;;;;11.37;10.33;;;;;;;13.18;100.00;96466.72;5007655;28;106299;-61
2023/05/24 05:40:14;;;;;;;11.40;10.43;;;;;;;13.13;100.00;96463.25;5006926;28;104986;-61
2023/05/24 05:42:41;;;;;;;11.23;10.23;;;;;;;13.14;100.00;96456.84;5006960;28;102131;-61
2023/05/24 05:45:13;;;;;;;11.53;10.43;;;;;;;13.19;100.00;96457.63;5007439;28;105189;-61
2023/05/24 05:47:42;;;;;;;12.90;11.67;;;;;;;13.17;100.00;96464.31;5006677;28;105492;-61
2023/05/24 05:50:09;;;;;;;12.60;11.40;;;;;;;13.21;100.00;96454.72;5010668;28;101976;-61
2023/05/24 05:52:36;;;;;;;11.93;10.83;;;;;;;13.11;100.00;96465.38;5006688;28;105556;-61
2023/05/24 05:55:10;;;;;;;11.27;10.17;;;;;;;12.98;100.00;96466.66;5006833;28;102126;-61
2023/05/24 05:57:37;;;;;;;11.80;10.70;;;;;;;12.96;100.00;96474.16;5007203;28;105577;-61
2023/05/24 06:00:05;;;;;;;12.10;11.00;;;;;;;12.84;100.00;96475.41;5006500;28;105753;-61
2023/05/24 06:02:38;;;;;;;12.40;11.30;;;;;;;12.67;100.00;96485.47;5005261;28;101994;-61
2023/05/24 06:05:11;;;;;;;13.03;11.93;;;;;;;12.76;100.00;96482.03;5008383;28;103333;-60
2023/05/24 06:07:38;;;;;;;14.17;12.97;;;;;;;12.78;100.00;96490.63;5006518;28;105509;-60
2023/05/24 06:10:06;;;;;;;14.93;13.53;;;;;;;12.69;100.00;96484.16;5004289;28;103750;-60
2023/05/24 06:12:33;;;;;;;15.10;13.70;;;;;;;12.67;100.00;96496.97;5014060;28;102633;-60
2023/05/24 06:15:08;;;;;;;15.57;14.00;;;;;;;12.66;100.00;96492.72;5010377;28;102225;-62
2023/05/24 06:17:35;;;;;;;18.07;15.20;;;;;;;12.65;100.00;96498.28;5010717;28;105101;-61
2023/05/24 06:20:08;;;;;;;17.03;14.43;;;;;;;12.55;100.00;96496.38;5009878;28;105527;-61
2023/05/24 06:22:38;;;;;;;18.17;16.27;;;;;;;12.72;100.00;96493.50;5010381;28;101780;-61
2023/05/24 06:25:06;;;;;;;18.80;15.80;;;;;;;12.75;100.00;96496.47;5005580;28;106228;-61
2023/05/24 06:27:33;;;;;;;17.17;15.53;;;;;;;12.80;100.00;96499.16;5006512;28;105567;-61
2023/05/24 06:30:02;;;;;;;19.27;16.13;;;;;;;12.84;100.00;96491.41;4990325;28;102370;-61
2023/05/24 06:32:29;;;;;;;17.20;15.60;;;;;;;12.75;100.00;96496.47;5000616;28;106619;-60
2023/05/24 06:35:20;;;;;;;17.33;15.53;;;;;;;12.86;100.00;96498.09;5013292;28;105313;-60
2023/05/24 06:37:48;;;;;;;18.70;16.83;;;;;;;12.95;100.00;96488.53;5010196;28;105099;-60
2023/05/24 06:40:15;;;;;;;18.33;16.53;;;;;;;12.83;100.00;96495.16;5007221;28;105022;-61
2023/05/24 06:42:42;;;;;;;17.87;15.97;;;;;;;12.86;100.00;96495.44;5009938;28;103633;-60
2023/05/24 06:45:19;;;;;;;17.77;15.97;;;;;;;12.95;100.00;96498.41;5009780;28;105244;-60
2023/05/24 06:47:47;;;;;;;17.40;15.70;;;;;;;12.75;100.00;96499.13;5009617;28;105462;-60
2023/05/24 06:50:13;;;;;;;17.53;15.83;;;;;;;12.63;100.00;96495.88;5009584;28;101936;-60
2023/05/24 06:52:40;;;;;;;17.97;16.07;;;;;;;12.54;100.00;96494.75;5009985;28;105083;-61
2023/05/24 06:55:22;;;;;;;18.17;16.37;;;;;;;12.54;100.00;96502.75;5010782;28;102612;-61
2023/05/24 06:57:49;;;;;;;17.87;15.97;;;;;;;12.68;100.00;96495.09;5013480;28;102043;-63
2023/05/24 07:00:17;;;;;;;16.93;15.27;;;;;;;12.78;100.00;96500.47;5009088;28;105758;-60
2023/05/24 07:02:44;;;;;;;18.70;16.67;;;;;;;12.86;100.00;96502.66;5009625;28;101976;-60
2023/05/24 07:05:14;;;;;;;18.63;16.73;;;;;;;12.93;100.00;96505.88;5006306;28;105044;-60
2023/05/24 07:07:43;;;;;;;17.00;15.37;;;;;;;12.88;100.00;96504.00;4989081;28;105812;-60
2023/05/24 07:10:11;;;;;;;16.87;15.27;;;;;;;12.83;100.00;96495.97;5006167;28;102112;-60
2023/05/24 07:12:39;;;;;;;17.33;15.63;;;;;;;12.80;100.00;96495.69;4992726;28;106268;-60
2023/05/24 07:15:08;;;;;;;16.20;14.70;;;;;;;12.92;100.00;96494.38;5009021;28;105831;-60
2023/05/24 07:17:35;;;;;;;17.10;15.30;;;;;;;12.86;100.00;96497.31;5009747;28;102248;-60
2023/05/24 07:20:04;;;;;;;15.43;14.00;;;;;;;12.94;100.00;96496.78;5012365;28;105079;-60
2023/05/24 07:22:31;;;;;;;16.47;14.77;;;;;;;12.94;100.00;96491.47;5008985;28;103220;-60
2023/05/24 07:24:58;;;;;;;16.37;14.77;;;;;;;13.12;100.00;96489.13;5000834;28;105186;-60
2023/05/24 07:27:24;;;;;;;17.37;15.60;;;;;;;13.07;100.00;96489.13;5008792;28;106031;-60
2023/05/24 07:29:53;;;;;;;16.93;15.23;;;;;;;13.17;100.00;96489.16;5009383;28;101896;-60
2023/05/24 07:32:20;;;;;;;17.30;15.60;;;;;;;13.33;100.00;96498.00;5008349;28;105463;-60
2023/05/24 07:34:53;;;;;;;15.77;14.30;;;;;;;13.10;100.00;96491.28;5042499;27;105429;-60
2023/05/24 07:37:22;;;;;;;17.00;15.47;;;;;;;13.24;100.00;96494.25;5009228;28;102123;-60
2023/05/24 07:39:50;;;;;;;18.07;16.37;;;;;;;13.38;100.00;96492.66;5008955;28;105666;-60
2023/05/24 07:42:16;;;;;;;17.73;15.93;;;;;;;13.44;100.00;96487.06;5013357;28;102746;-60
2023/05/24 07:48:07;;;;;;;15.60;14.10;;;;;;;13.58;100.00;96492.69;5008359;28;105777;-60
2023/05/24 07:50:35;;;;;;;16.70;15.17;;;;;;;13.56;100.00;96494.81;5009026;28;101967;-60
2023/05/24 07:53:01;;;;;;;16.07;14.67;;;;;;;13.49;100.00;96499.63;5007584;28;105504;-60
2023/05/24 07:55:28;;;;;;;15.13;13.73;;;;;;;13.57;100.00;96496.44;5008440;28;103859;-60
2023/05/24 07:57:55;;;;;;;14.30;13.00;;;;;;;13.55;100.00;96491.34;5008873;28;102033;-60
2023/05/24 08:00:22;;;;;;;15.33;13.83;;;;;;;13.62;100.00;96496.44;5008930;28;103695;-60
2023/05/24 08:02:49;;;;;;;14.43;13.03;;;;;;;13.66;100.00;96495.63;5006946;28;103850;-60
2023/05/24 08:05:26;;;;;;;14.97;13.57;;;;;;;13.79;100.00;96492.41;5008799;28;105276;-60
2023/05/24 08:07:53;;;;;;;14.87;13.37;;;;;;;13.38;100.00;96492.66;5008122;28;104988;-60
2023/05/24 08:10:20;;;;;;;14.70;13.30;;;;;;;13.08;100.00;96500.63;5008762;28;101934;-60
2023/05/24 08:12:49;;;;;;;14.80;13.37;;;;;;;13.26;100.00;96490.25;5009992;28;102878;-60
2023/05/24 08:15:23;;;;;;;14.80;13.40;;;;;;;13.34;100.00;96491.56;5008199;28;105402;-59
2023/05/24 08:17:50;;;;;;;14.83;13.47;;;;;;;13.45;100.00;96493.19;5010257;28;102307;-60
2023/05/24 08:20:17;;;;;;;15.03;13.60;;;;;;;13.52;100.00;96493.75;5009792;28;102721;-59
2023/05/24 08:22:47;;;;;;;14.00;12.70;;;;;;;13.55;100.00;96487.88;5009382;28;102598;-59
2023/05/24 08:25:14;;;;;;;14.70;13.33;;;;;;;13.69;100.00;96491.63;5011928;28;101902;-60
2023/05/24 08:27:41;;;;;;;13.27;12.00;;;;;;;13.83;100.00;96501.50;5009264;28;102775;-60
2023/05/24 08:30:09;;;;;;;14.30;12.87;;;;;;;13.80;100.00;96496.69;5009787;28;101863;-59
2023/05/24 08:32:37;;;;;;;13.27;12.07;;;;;;;13.82;100.00;96493.75;5009604;28;102291;-61
2023/05/24 08:35:23;;;;;;;12.50;11.40;;;;;;;13.88;100.00;96495.34;5008482;28;102612;-60
2023/05/24 08:37:51;;;;;;;13.00;11.70;;;;;;;13.91;100.00;96489.50;5008469;28;101942;-60
2023/05/24 08:40:18;;;;;;;13.07;11.70;;;;;;;13.89;100.00;96494.31;5009366;28;103380;-59
2023/05/24 08:42:46;;;;;;;13.47;12.30;;;;;;;13.99;100.00;96495.09;5007341;28;105412;-59
2023/05/24 08:45:27;;;;;;;12.27;11.17;;;;;;;14.02;100.00;96493.75;5008002;28;101993;-59
2023/05/24 08:47:56;;;;;;;11.97;10.97;;;;;;;14.09;100.00;96484.41;5011120;28;105729;-62
2023/05/24 08:50:25;;;;;;;11.83;10.67;;;;;;;14.18;100.00;96487.31;5008043;28;102647;-61
2023/05/24 08:52:54;;;;;;;12.50;11.40;;;;;;;14.12;100.00;96483.84;5007876;28;105317;-60
2023/05/24 08:55:22;;;;;;;12.70;11.50;;;;;;;14.08;100.00;96487.31;5007504;28;105729;-59
2023/05/24 08:57:50;;;;;;;11.57;10.50;;;;;;;14.10;100.00;96480.63;5008007;28;102388;-59
2023/05/24 09:00:18;;;;;;;11.73;10.53;;;;;;;14.18;100.00;96490.00;5004629;28;105510;-59
2023/05/24 09:02:46;;;;;;;13.10;11.90;;;;;;;14.27;100.00;96491.88;5001645;28;105672;-59
2023/05/24 09:05:15;;;;;;;12.70;11.40;;;;;;;14.24;100.00;96486.25;4993586;28;101877;-59
2023/05/24 09:07:45;;;;;;;12.20;11.00;;;;;;;14.24;100.00;96486.25;5007845;28;105651;-59
2023/05/24 09:10:13;;;;;;;11.87;10.67;;;;;;;14.24;100.00;96480.91;5007402;28;105385;-59
2023/05/24 09:12:44;;;;;;;12.33;11.23;;;;;;;14.27;100.00;96485.72;5004463;28;105287;-60
2023/05/24 09:15:13;;;;;;;12.53;11.43;;;;;;;14.20;100.00;96491.34;5007391;28;105404;-59
2023/05/24 09:17:41;;;;;;;11.93;10.93;;;;;;;14.22;100.00;96493.78;5007663;28;102111;-59
2023/05/24 09:20:10;;;;;;;11.43;10.33;;;;;;;14.10;100.00;96493.19;5004257;28;105192;-60
2023/05/24 09:22:38;;;;;;;11.07;9.97;;;;;;;14.14;100.00;96489.72;5003251;28;106071;-60
2023/05/24 09:25:06;;;;;;;11.93;10.70;;;;;;;14.17;100.00;96491.06;5003839;28;102013;-60
2023/05/24 09:27:36;;;;;;;11.20;10.20;;;;;;;14.25;100.00;96490.53;5008992;28;102985;-60
2023/05/24 09:30:04;;;;;;;11.30;10.27;;;;;;;14.33;100.00;96495.34;5008103;28;102638;-60
2023/05/24 09:32:32;;;;;;;10.60;9.67;;;;;;;14.35;100.00;96496.69;5012049;28;102169;-60
2023/05/24 09:34:59;;;;;;;10.40;9.50;;;;;;;14.28;100.00;96496.16;5009078;28;103040;-60
2023/05/24 09:37:28;;;;;;;11.33;10.33;;;;;;;14.30;100.00;96490.53;5010089;28;101694;-60
2023/05/24 09:39:56;;;;;;;11.03;10.03;;;;;;;14.35;100.00;96491.34;5008755;28;102634;-59
2023/05/24 09:42:26;;;;;;;10.30;9.50;;;;;;;14.47;100.00;96491.84;5007967;28;102643;-59
2023/05/24 09:45:11;;;;;;;10.50;9.50;;;;;;;14.44;100.00;96494.25;5008105;28;101911;-59
2023/05/24 09:47:40;;;;;;;10.13;9.23;;;;;;;14.46;100.00;96489.44;5010018;28;105454;-60
2023/05/24 09:50:15;;;;;;;10.17;9.37;;;;;;;14.45;100.00;96487.81;5007858;28;105660;-59
2023/05/24 09:52:42;;;;;;;9.80;9.00;;;;;;;14.52;100.00;96486.47;5003946;28;101866;-59
2023/05/24 09:55:22;;;;;;;10.17;9.17;;;;;;;14.49;100.00;96495.03;5003292;28;105164;-60
2023/05/24 09:58:01;;;;;;;10.17;9.27;;;;;;;14.50;100.00;96501.19;4995341;28;102368;-59
2023/05/24 10:00:34;;;;;;;10.90;9.90;;;;;;;14.51;100.00;96503.56;5011463;28;105234;-59
2023/05/24 10:03:02;;;;;;;9.60;8.80;;;;;;;14.50;100.00;96503.88;5030764;27;105321;-59
2023/05/24 10:05:30;;;;;;;10.13;9.23;;;;;;;14.50;100.00;96501.19;4991673;28;101926;-59
2023/05/24 10:07:58;;;;;;;9.60;8.70;;;;;;;14.38;100.00;96500.69;4992923;28;102643;-60
2023/05/24 10:10:28;;;;;;;9.07;8.37;;;;;;;14.44;100.00;96505.75;4992515;28;102596;-59
2023/05/24 10:12:56;;;;;;;11.57;10.43;;;;;;;14.33;100.00;96503.38;5008859;28;102255;-59
2023/05/24 10:15:30;;;;;;;9.27;8.40;;;;;;;14.06;100.00;96502.84;5013399;28;103669;-59
2023/05/24 10:17:58;;;;;;;9.90;9.00;;;;;;;13.89;100.00;96505.00;5012855;28;101689;-60
2023/05/24 10:20:25;;;;;;;9.93;9.03;;;;;;;13.90;100.00;96506.59;5012733;28;102374;-60
2023/05/24 10:22:54;;;;;;;9.77;8.97;;;;;;;13.93;100.00;96506.88;5011840;28;103098;-60
2023/05/24 10:25:45;;;;;;;9.50;8.57;;;;;;;13.92;100.00;96502.59;5007296;28;102061;-60
2023/05/24 10:28:15;;;;;;;9.90;9.00;;;;;;;13.90;100.00;96514.63;4971505;28;105345;-60
2023/05/24 10:30:53;;;;;;;9.40;8.60;;;;;;;13.94;100.00;96511.13;4970578;28;105529;-60
2023/05/24 10:33:23;;;;;;;10.03;9.23;;;;;;;13.98;100.00;96506.06;4972855;28;101805;-63
2023/05/24 10:35:51;;;;;;;9.43;8.63;;;;;;;14.07;100.00;96515.16;4953502;28;102405;-59
2023/05/24 10:38:22;;;;;;;10.77;9.77;;;;;;;14.00;100.00;96512.72;4976436;28;103772;-60
2023/05/24 10:40:49;;;;;;;12.37;11.27;;;;;;;13.82;100.00;96520.50;4970878;28;105924;-60
2023/05/24 10:43:26;;;;;;;12.83;11.57;;;;;;;13.83;100.00;96527.44;4970997;28;102850;-60
2023/05/24 10:45:55;;;;;;;12.87;11.67;;;;;;;13.74;100.00;96521.81;4971825;28;102118;-60
2023/05/24 10:48:41;;;;;;;12.70;11.53;;;;;;;13.76;100.00;96526.91;4969921;28;105414;-60
2023/05/24 10:51:32;;;;;;;14.40;13.00;;;;;;;13.70;100.00;96531.47;4969487;28;105526;-60
2023/05/24 10:54:25;;;;;;;14.73;13.33;;;;;;;13.80;100.00;96531.44;4971267;28;101947;-60
2023/05/24 10:56:52;;;;;;;15.37;13.83;;;;;;;13.96;100.00;96522.34;4968475;28;102316;-60
2023/05/24 10:59:38;;;;;;;17.13;15.43;;;;;;;13.84;100.00;96521.81;4970821;28;103068;-60
2023/05/24 11:02:12;;;;;;;16.50;14.90;;;;;;;13.83;100.00;96522.09;4974187;28;101879;-60
2023/05/24 11:04:50;;;;;;;16.53;14.93;;;;;;;14.03;100.00;96522.09;4969390;28;105598;-60
2023/05/24 11:07:19;;;;;;;17.10;15.30;;;;;;;13.95;100.00;96520.75;4968973;28;102148;-60
2023/05/24 11:09:51;;;;;;;16.27;14.57;;;;;;;14.00;100.00;96523.44;4969386;28;102413;-60
2023/05/24 11:12:19;;;;;;;16.47;14.93;;;;;;;13.99;100.00;96526.38;4967707;28;103833;-60
2023/05/24 11:14:48;;;;;;;17.87;16.17;;;;;;;14.10;100.00;96525.28;4969325;28;101887;-60
2023/05/24 11:17:18;;;;;;;18.37;16.57;;;;;;;14.03;100.00;96522.09;4970207;28;102909;-60
2023/05/24 11:19:47;;;;;;;17.50;15.90;;;;;;;14.00;100.00;96517.31;4968731;28;103762;-60
2023/05/24 11:22:14;;;;;;;17.90;16.10;;;;;;;14.14;100.00;96518.34;4968217;28;101978;-60
2023/05/24 11:24:42;;;;;;;17.90;16.20;;;;;;;14.20;100.00;96522.63;4972535;28;102806;-61
2023/05/24 11:27:12;;;;;;;17.13;15.50;;;;;;;14.11;100.00;96518.91;4981282;28;102178;-60
2023/05/24 11:29:43;;;;;;;16.97;15.47;;;;;;;14.21;100.00;96517.03;5002795;28;105606;-60